Pagina principale
METAR-TAF:

METAR-TAF

Aeroporti :

San Gallo, Svizzera

latitudine: 47-29-06N, longitudine: 009-33-43E, altezza: 398 m

Osservazione

Il bollettino è stato emesso 32 minuti fa, alle 20:20 UTC
Vento 8 kt da nord/nord-est, variando fra nord e est/nord-est
Temperature 16°C
Umidità 48%
Pressione 1026 hPa
Visibilità 10 km o più
nessuna nube inferiore a 1500 m e nessun cumulonembo

METAR: LSZR 222020Z AUTO 02008KT 360V060 CAVOK 16/05 Q1026

Ora: 22:52 (20:52 UTC)

Previsione

Il bollettino è stato emesso 6 ore e 27 minuti fa, alle 14:25 UTC
Previsione valida dal 22 alle 15 UTC al 22 alle 24 UTC
Vento 3 kt da direzioni variabili
Visibilità 10 km o più
Nubi sparse ad un'altezza di 6000 ft
Probabilità 40% :
Temporaneamente
dal 22 alle 15 UTC al 22 alle 18 UTC
Vento 10 kt da nord-ovest

TAF: LSZR 221425Z 2215/2224 VRB03KT 9999 SCT060 PROB40 TEMPO 2215/2218 32010KT

Osservazioni e previsioni meteorologiche di più di 4000 aeroporti (messaggi METAR e TAF).

Le stazioni disponibili sono rappresentate dai dischi gialli e rossi sulla carta.

Puntare il mouse per vedere il nome della stazione.

Clicca sopra per visualizzare le osservazioni e previsioni meteorologiche.

Per cambiare la mappa : fare clic sui pulsanti verdi con una croce nera per ingrandire, il pulsante verde con un trattino per diminuire, o sulla freccia verde per le mappe adiacenti.


METAR-TAF: